Airfield :
LOGIN :

Register | Disclaimer

   EN    FR    IT 

 










Legend :    VFR   Marginal VFR   IFR   Intensive IFR   Very Intensive IFR
Visi :
Ceiling :
>= 8 km
>= 3000ft
5 to 8 km
1000 to 3000 ft
1500m to 5 km
500 to 1000 ft
800 to 1500m
200 to 500 ft
< 800m
< 200 ft
Symbols :   Thunderstorms  Fog  Heavy snow  Heavy precipitations  Wind > 20 kt
SIGMETs :     Misc.  Thunderstorms  Icing  Turbulence  Mountain Waves  Volcanic Ashes






- Airport Elevation : 141 ft
- IATA code : TGD


LYPG - Podgorica - Montenegro

CURRENT METAR :
  • 281230Z 16005KT 130V220 9999 FEW040 SCT050 OVC080 15/06 Q1012 NOSIG

EXPIRED METARs :
  • 281200Z 00000KT 9999 -RA FEW040 SCT050 OVC080 15/06 Q1012 NOSIG
  • 281130Z VRB01KT 9999 -RA SCT040 BKN080 14/07 Q1013 NOSIG
  • 281100Z VRB02KT 9999 -RA SCT040 BKN080 14/07 Q1013 NOSIG
  • 281030Z 10003KT 040V190 9999 SCT040 OVC080 14/07 Q1013 NOSIG
  • 281000Z 15002KT 9999 SCT040 OVC080 13/08 Q1013 NOSIG

TAF TAF LYPG
Valid from the 28 at 12:00 until the 29 at 12:00 UTC


281100Z 2812/2912 18005KT 9999 SCT040 BKN080 TX15/2813Z TN05/2905Z



MET'MAP, your aeronautical weather chart ! - Copyright ORBIFLY December 2007 - Disclaimer

ORBIFLY MET'MAP TEAM :

Programming & Development : Alexandra Zaïnal
Concept & original design : Baudouin d'Aumeries
Assistance for programming : Marc-Olivier Méhu
Technical & hardware support : Manuel Goepfert

Contact : metmap@orbifly.com




SOURCES & CREDITS :

   NOAA